Time;durP1;ratioP1;P1;durP2;ratioP2;P2;SDS_P1;SDS_P2;PMS_P1;PMS_P2;Temp;Humidity;BMP_temperature;BMP_pressure;BME280_temperature;BME280_humidity;BME280_pressure;Samples;Min_cycle;Max_cycle;Signal;HPM_P1;HPM_P2
2022/01/03 00:00:33;;;;;;;75.70;34.85;;;;;;;4.78;73.16;95563.56;5013308;28;20034;-79
2022/01/03 00:03:01;;;;;;;75.07;33.08;;;;;;;4.43;72.91;95510.16;5011697;28;20045;-79
2022/01/03 00:05:27;;;;;;;66.90;33.08;;;;;;;5.23;72.79;95612.94;5012691;28;20061;-79
2022/01/03 00:07:53;;;;;;;70.43;33.08;;;;;;;5.25;72.38;95616.94;5013017;28;20033;-79
2022/01/03 00:10:20;;;;;;;52.03;28.27;;;;;;;5.20;72.28;95616.81;5012629;28;20493;-79
2022/01/03 00:12:47;;;;;;;59.78;29.52;;;;;;;5.20;72.66;95616.81;5013788;28;20041;-79
2022/01/03 00:15:14;;;;;;;63.05;29.65;;;;;;;5.11;73.16;95612.91;5013668;28;20372;-79
2022/01/03 00:17:41;;;;;;;53.45;28.00;;;;;;;4.76;73.40;95602.38;5014450;28;20038;-79
2022/01/03 00:20:08;;;;;;;58.75;28.42;;;;;;;4.90;73.83;95602.97;5013957;28;20056;-79
2022/01/03 00:22:48;;;;;;;55.40;27.05;;;;;;;4.37;73.47;95509.25;5014006;28;20042;-80
2022/01/03 00:25:19;;;;;;;53.95;26.70;;;;;;;4.36;73.19;95510.28;5014099;28;20041;-79
2022/01/03 00:28:24;;;;;;;53.10;27.43;;;;;;;4.86;73.94;95586.06;5014284;28;20033;-79
2022/01/03 00:30:55;;;;;;;55.47;28.50;;;;;;;4.89;73.40;95580.34;4953110;29;20043;-79
2022/01/03 00:33:21;;;;;;;61.95;30.20;;;;;;;4.06;73.79;95454.41;5017589;28;20077;-79
2022/01/03 00:35:53;;;;;;;57.75;28.45;;;;;;;4.83;74.17;95576.00;5012548;28;20137;-79
2022/01/03 00:38:20;;;;;;;54.67;27.67;;;;;;;3.67;73.27;95390.22;5012291;28;20045;-79
2022/01/03 00:40:46;;;;;;;52.25;27.25;;;;;;;4.66;73.53;95555.66;5012419;28;20053;-79
2022/01/03 00:43:11;;;;;;;53.80;28.38;;;;;;;4.37;73.20;95525.00;5014202;28;20034;-79
2022/01/03 00:45:37;;;;;;;68.75;29.85;;;;;;;4.95;72.89;95590.75;5012484;28;20038;-79
2022/01/03 00:48:10;;;;;;;60.65;30.20;;;;;;;4.45;72.80;95524.69;5013227;28;20038;-80
2022/01/03 00:50:36;;;;;;;61.58;30.23;;;;;;;4.57;73.12;95561.47;5013544;28;20489;-79
2022/01/03 00:53:03;;;;;;;62.58;29.27;;;;;;;4.96;72.65;95602.06;5014192;28;20073;-80
2022/01/03 00:55:29;;;;;;;62.78;29.08;;;;;;;4.58;73.18;95581.44;5012237;28;20484;-80
2022/01/03 00:57:54;;;;;;;56.38;27.60;;;;;;;4.52;73.80;95588.41;5014356;28;20164;-79
2022/01/03 01:00:20;;;;;;;52.30;25.83;;;;;;;3.86;74.30;95480.97;5012309;28;20538;-79
2022/01/03 01:03:01;;;;;;;54.55;27.13;;;;;;;4.24;73.79;95525.22;5013671;28;20105;-79
2022/01/03 01:05:27;;;;;;;48.03;26.93;;;;;;;4.74;73.76;95565.03;5011476;28;20119;-78
2022/01/03 01:07:59;;;;;;;56.80;27.20;;;;;;;4.58;73.71;95569.13;5009699;28;20304;-78
2022/01/03 01:10:26;;;;;;;;;;;;;;;4.62;74.01;95562.41;5011842;28;20109;-79
2022/01/03 01:12:52;;;;;;;52.50;24.13;;;;;;;4.06;74.26;95454.41;5009513;28;19925;-79
2022/01/03 01:15:18;;;;;;;50.65;24.92;;;;;;;4.75;73.53;95545.59;5010200;28;20040;-79
2022/01/03 01:17:45;;;;;;;51.05;22.65;;;;;;;4.34;74.16;95508.91;5009945;28;20034;-78
2022/01/03 01:20:15;;;;;;;43.42;22.13;;;;;;;4.36;73.75;95526.03;5011253;28;20065;-78
2022/01/03 01:22:42;;;;;;;42.20;22.95;;;;;;;4.70;73.37;95545.50;5010178;28;20499;-78
2022/01/03 01:27:48;;;;;;;49.00;23.63;;;;;;;3.95;73.55;95432.38;5016290;28;20480;-78
2022/01/03 01:30:19;;;;;;;40.78;22.52;;;;;;;4.39;73.67;95509.03;5016038;28;20044;-78
2022/01/03 01:32:59;;;;;;;47.05;23.83;;;;;;;4.00;73.86;95465.81;5015211;28;20089;-79
2022/01/03 01:35:53;;;;;;;42.97;22.65;;;;;;;4.12;74.11;95470.06;5013593;28;20049;-79
2022/01/03 01:38:21;;;;;;;44.92;23.25;;;;;;;4.76;73.60;95551.66;5017036;28;20030;-80
2022/01/03 01:40:51;;;;;;;43.35;23.15;;;;;;;4.73;73.34;95536.38;5015020;28;20041;-79
2022/01/03 01:43:32;;;;;;;72.45;34.45;;;;;;;4.66;74.32;95546.97;5015424;28;20034;-79
2022/01/03 01:45:59;;;;;;;125.53;56.33;;;;;;;4.65;74.33;95553.28;5015617;28;20042;-79
2022/01/03 01:48:26;;;;;;;135.65;60.35;;;;;;;4.42;73.84;95512.03;5016503;28;20026;-79
2022/01/03 01:50:59;;;;;;;133.20;59.05;;;;;;;4.24;73.96;95460.38;4646166;28;10001411;-78
2022/01/03 01:53:26;;;;;;;132.07;59.10;;;;;;;4.69;73.79;95548.34;689935;28;10002024;-79
2022/01/03 01:55:56;;;;;;;122.90;56.70;;;;;;;4.56;72.81;95523.91;5015754;28;20794;-79
2022/01/03 01:58:36;;;;;;;113.18;53.30;;;;;;;4.73;72.84;95533.75;5013645;28;20042;-79
2022/01/03 02:01:07;;;;;;;111.35;49.70;;;;;;;4.72;72.89;95540.81;5013341;28;20046;-79
2022/01/03 02:03:50;;;;;;;115.18;51.97;;;;;;;4.68;72.33;95499.44;5014188;28;20030;-80
2022/01/03 02:06:40;;;;;;;111.95;50.75;;;;;;;4.90;71.91;95524.13;5013832;28;20131;-79
2022/01/03 02:09:17;;;;;;;98.68;45.00;;;;;;;4.59;72.94;95493.72;5014422;28;20456;-79
2022/01/03 02:11:49;;;;;;;110.40;48.38;;;;;;;4.78;72.49;95513.63;5014796;28;20034;-79
2022/01/03 02:14:16;;;;;;;107.80;50.33;;;;;;;4.19;73.50;95447.16;5014538;28;20046;-78
2022/01/03 02:16:43;;;;;;;102.75;49.42;;;;;;;4.04;73.11;95398.75;5013126;28;20124;-79
2022/01/03 02:19:09;;;;;;;101.50;48.13;;;;;;;3.86;73.63;95387.31;5014778;28;20421;-79
2022/01/03 02:21:34;;;;;;;95.38;43.83;;;;;;;4.28;73.66;95458.09;5014094;28;20124;-78
2022/01/03 02:24:00;;;;;;;92.40;44.05;;;;;;;4.56;73.51;95491.59;5014404;28;20073;-79
2022/01/03 02:26:28;;;;;;;95.78;45.45;;;;;;;4.09;73.58;95418.03;5029217;28;20036;-79
2022/01/03 02:28:53;;;;;;;91.60;41.53;;;;;;;4.23;73.15;95419.41;5015465;28;20038;-79
2022/01/03 02:31:19;;;;;;;89.57;43.00;;;;;;;4.70;73.05;95476.38;5012892;28;20045;-79
2022/01/03 02:33:44;;;;;;;94.97;43.05;;;;;;;4.68;73.57;95478.44;5012661;28;20109;-79
2022/01/03 02:36:10;;;;;;;93.35;40.85;;;;;;;4.28;74.38;95451.00;5014074;28;20049;-79
2022/01/03 02:38:37;;;;;;;96.53;41.75;;;;;;;4.00;73.76;95374.78;5012346;28;20078;-79
2022/01/03 02:41:02;;;;;;;87.60;40.97;;;;;;;4.62;73.78;95482.78;5012938;28;20129;-79
2022/01/03 02:43:28;;;;;;;95.35;44.20;;;;;;;4.41;73.72;95441.34;5014678;28;20117;-79
2022/01/03 02:45:53;;;;;;;104.38;47.33;;;;;;;4.49;73.28;95470.69;5013924;28;20041;-79
2022/01/03 02:48:22;;;;;;;101.30;49.65;;;;;;;4.15;72.76;95400.56;5017038;28;20037;-79
2022/01/03 02:50:47;;;;;;;107.13;47.85;;;;;;;4.21;72.62;95382.06;5018409;28;20037;-79
2022/01/03 02:53:13;;;;;;;95.57;45.17;;;;;;;4.74;72.56;95477.50;5013089;28;20042;-79
2022/01/03 02:55:39;;;;;;;103.32;47.60;;;;;;;4.48;72.89;95426.25;5015013;28;20053;-79
2022/01/03 02:58:07;;;;;;;100.70;47.05;;;;;;;4.62;72.48;95452.06;5015014;28;20037;-79
2022/01/03 03:00:37;;;;;;;89.30;42.70;;;;;;;3.85;72.55;95335.06;5014593;28;20038;-79
2022/01/03 03:03:04;;;;;;;89.38;41.95;;;;;;;4.40;72.87;95410.84;5015064;28;20033;-79
2022/01/03 03:05:30;;;;;;;90.00;41.65;;;;;;;4.65;72.36;95458.69;5016740;28;20037;-79
2022/01/03 03:07:55;;;;;;;86.97;41.38;;;;;;;4.16;72.87;95375.91;5031293;28;20041;-79
2022/01/03 03:10:24;;;;;;;75.93;36.78;;;;;;;3.80;73.27;95322.63;5015340;28;20130;-79
2022/01/03 03:12:50;;;;;;;78.53;37.60;;;;;;;4.55;72.91;95454.00;5016421;28;20037;-78
2022/01/03 03:15:16;;;;;;;73.43;35.35;;;;;;;3.78;72.63;95335.16;5031555;28;20034;-79
2022/01/03 03:17:43;;;;;;;70.38;34.47;;;;;;;4.63;72.84;95469.44;5014282;28;20026;-79
2022/01/03 03:20:14;;;;;;;72.50;35.83;;;;;;;3.99;72.73;95354.78;5014430;28;20033;-79
2022/01/03 03:22:41;;;;;;;69.50;35.22;;;;;;;4.18;73.51;95415.88;5016136;28;20500;-79
2022/01/03 03:25:16;;;;;;;69.28;34.60;;;;;;;4.43;73.00;95437.44;5014800;28;20414;-79
2022/01/03 03:27:44;;;;;;;62.00;32.65;;;;;;;4.51;73.41;95457.31;5013884;28;20036;-79
2022/01/03 03:30:15;;;;;;;78.85;35.35;;;;;;;4.41;73.78;95436.88;5031108;28;20033;-80
2022/01/03 03:32:44;;;;;;;70.97;36.55;;;;;;;4.73;73.16;95481.97;5030939;28;20113;-79
2022/01/03 03:35:10;;;;;;;67.97;32.30;;;;;;;4.56;73.50;95439.06;5016122;28;20491;-80
2022/01/03 03:37:36;;;;;;;66.78;34.00;;;;;;;4.73;73.09;95452.28;5015708;28;20034;-79
2022/01/03 03:40:03;;;;;;;69.63;35.20;;;;;;;4.00;72.69;95326.72;5015752;28;20488;-79
2022/01/03 03:42:29;;;;;;;67.35;34.30;;;;;;;4.43;72.91;95426.94;5013878;28;20093;-78
2022/01/03 03:44:54;;;;;;;63.58;33.10;;;;;;;4.05;73.74;95377.50;5014100;28;20211;-79
2022/01/03 03:47:20;;;;;;;62.92;32.05;;;;;;;4.49;73.29;95430.50;5012614;28;20034;-78
2022/01/03 03:49:52;;;;;;;65.36;31.68;;;;;;;4.66;72.76;95476.84;4801429;28;10000524;-78
2022/01/03 03:52:18;;;;;;;68.13;34.30;;;;;;;3.74;72.94;95317.47;689513;28;10001996;-79
2022/01/03 03:54:43;;;;;;;62.45;32.65;;;;;;;3.91;72.83;95370.06;5012591;28;20029;-79
2022/01/03 03:57:09;;;;;;;68.45;35.95;;;;;;;4.29;74.50;95451.81;5013754;28;20080;-80
2022/01/03 03:59:35;;;;;;;83.50;34.00;;;;;;;3.98;73.94;95391.75;5028990;28;20038;-79
2022/01/03 04:02:02;;;;;;;77.25;36.35;;;;;;;4.16;74.92;95446.78;5012351;28;20045;-79
2022/01/03 04:04:28;;;;;;;74.47;37.67;;;;;;;4.13;75.14;95444.59;5011963;28;20041;-79
2022/01/03 04:06:54;;;;;;;89.03;40.67;;;;;;;3.78;75.01;95376.34;4997563;28;20404;-79
2022/01/03 04:09:19;;;;;;;89.20;40.95;;;;;;;4.28;74.59;95442.34;5014535;28;20040;-79
2022/01/03 04:11:45;;;;;;;77.80;38.58;;;;;;;4.19;74.49;95415.66;5013795;28;20038;-79
2022/01/03 04:14:10;;;;;;;74.15;35.10;;;;;;;3.94;74.41;95372.25;5013655;28;20400;-79
2022/01/03 04:16:37;;;;;;;68.28;34.28;;;;;;;3.42;74.56;95337.97;5013406;28;20137;-79
2022/01/03 04:19:03;;;;;;;63.28;32.55;;;;;;;3.94;74.20;95393.25;5011897;28;20033;-79
2022/01/03 04:21:29;;;;;;;62.50;32.38;;;;;;;4.04;74.22;95409.25;5011760;28;20036;-79
2022/01/03 04:23:54;;;;;;;64.28;31.90;;;;;;;4.45;73.91;95463.47;5012167;28;20105;-79
2022/01/03 04:26:20;;;;;;;61.38;30.45;;;;;;;4.00;73.54;95372.16;5012163;28;20026;-79
2022/01/03 04:28:47;;;;;;;59.58;31.40;;;;;;;3.70;74.19;95372.22;5012018;28;20091;-79
2022/01/03 04:31:12;;;;;;;57.10;31.13;;;;;;;3.37;74.46;95309.78;5013897;28;20100;-79
2022/01/03 04:33:38;;;;;;;56.53;29.40;;;;;;;4.28;74.02;95440.50;5013363;28;20046;-78
2022/01/03 04:36:04;;;;;;;58.92;29.02;;;;;;;3.76;74.12;95370.50;5013661;28;20044;-79
2022/01/03 04:38:30;;;;;;;58.28;28.85;;;;;;;3.70;74.48;95382.72;5012037;28;20092;-79
2022/01/03 04:40:56;;;;;;;65.18;30.35;;;;;;;3.75;75.17;95393.31;5028280;28;20034;-79
2022/01/03 04:43:22;;;;;;;60.13;29.60;;;;;;;3.49;75.23;95360.44;5014055;28;20033;-79
2022/01/03 04:45:47;;;;;;;56.15;27.40;;;;;;;3.79;74.85;95391.88;5012874;28;20037;-79
2022/01/03 04:48:12;;;;;;;58.03;27.88;;;;;;;3.58;75.20;95376.66;5031312;28;20046;-79
2022/01/03 04:50:38;;;;;;;59.10;29.90;;;;;;;3.57;74.60;95376.88;5012121;28;20464;-79
2022/01/03 04:53:03;;;;;;;50.88;27.02;;;;;;;3.51;74.51;95383.78;5011524;28;20135;-79
2022/01/03 04:55:29;;;;;;;58.47;30.10;;;;;;;3.69;75.29;95459.00;5011235;28;20026;-79
2022/01/03 04:57:54;;;;;;;59.67;27.73;;;;;;;3.33;74.65;95366.31;5011031;28;20037;-79
2022/01/03 05:00:20;;;;;;;58.08;28.20;;;;;;;2.83;74.38;95268.84;5012447;28;20120;-79
2022/01/03 05:02:46;;;;;;;58.15;27.17;;;;;;;3.09;74.39;95338.44;5015598;28;20040;-79
2022/01/03 05:05:11;;;;;;;53.88;27.63;;;;;;;3.90;74.93;95482.09;5015313;28;20041;-79
2022/01/03 05:07:38;;;;;;;51.83;26.98;;;;;;;3.88;74.68;95484.97;5014803;28;20029;-79
2022/01/03 05:10:04;;;;;;;57.67;27.52;;;;;;;3.83;75.06;95482.19;5016528;28;20444;-79
2022/01/03 05:12:30;;;;;;;48.78;24.45;;;;;;;3.77;75.38;95475.22;5014844;28;20040;-78
2022/01/03 05:14:56;;;;;;;55.42;26.45;;;;;;;3.20;75.37;95389.31;5015409;28;20113;-78
2022/01/03 05:17:22;;;;;;;52.83;25.73;;;;;;;3.29;74.90;95399.22;5016261;28;20102;-78
2022/01/03 05:19:47;;;;;;;52.97;27.42;;;;;;;2.90;74.75;95308.84;5014503;28;20516;-79
2022/01/03 05:22:13;;;;;;;50.80;26.67;;;;;;;3.18;75.30;95400.00;5015868;28;20400;-79
2022/01/03 05:24:38;;;;;;;50.38;26.08;;;;;;;3.48;75.96;95455.06;5015966;28;20048;-79
2022/01/03 05:27:05;;;;;;;43.80;23.60;;;;;;;3.00;75.79;95358.91;5016072;28;20037;-79
2022/01/03 05:29:32;;;;;;;47.75;23.92;;;;;;;3.74;75.35;95465.16;5015060;28;20503;-79
2022/01/03 05:31:57;;;;;;;51.17;25.15;;;;;;;2.78;74.96;95299.34;5031680;28;20041;-78
2022/01/03 05:34:23;;;;;;;49.75;24.50;;;;;;;3.17;75.18;95366.16;5014630;28;20038;-79
2022/01/03 05:36:48;;;;;;;48.85;26.58;;;;;;;3.59;74.69;95441.19;5016231;28;20029;-80
2022/01/03 05:39:14;;;;;;;47.35;26.73;;;;;;;3.45;75.58;95445.81;5015044;28;20041;-79
2022/01/03 05:41:41;;;;;;;64.03;30.00;;;;;;;3.10;75.71;95392.44;5014609;28;20030;-79
2022/01/03 05:44:09;;;;;;;63.63;33.67;;;;;;;3.12;75.72;95414.00;5015491;28;20121;-79
2022/01/03 05:46:35;;;;;;;67.20;30.67;;;;;;;3.59;75.47;95451.66;5014705;28;20101;-79
2022/01/03 05:49:00;;;;;;;62.47;31.35;;;;;;;3.14;75.85;95404.06;5014844;28;20053;-80
2022/01/03 05:51:42;;;;;;;62.47;27.02;;;;;;;3.02;75.93;95372.59;2197268;28;10023883;-79
2022/01/03 05:54:08;;;;;;;57.88;28.52;;;;;;;3.53;76.30;95451.75;3631543;28;10001083;-79
2022/01/03 05:56:34;;;;;;;45.60;24.83;;;;;;;3.03;76.01;95368.94;5030745;28;20034;-79
2022/01/03 05:58:59;;;;;;;65.57;34.38;;;;;;;2.93;76.10;95366.06;5030499;28;20044;-79
2022/01/03 06:01:26;;;;;;;62.65;33.67;;;;;;;3.54;75.83;95441.06;5014238;28;20465;-79
2022/01/03 06:04:01;;;;;;;55.30;28.60;;;;;;;3.25;75.49;95420.88;5013910;28;20038;-80
2022/01/03 06:06:53;;;;;;;54.35;29.90;;;;;;;3.43;76.25;95454.94;5013671;28;20034;-80
2022/01/03 06:09:19;;;;;;;53.33;27.95;;;;;;;2.45;75.28;95268.34;5015582;28;20049;-79
2022/01/03 06:11:45;;;;;;;49.17;25.73;;;;;;;3.04;74.85;95341.72;5013076;28;20038;-80
2022/01/03 06:14:11;;;;;;;70.72;34.55;;;;;;;3.35;74.93;95397.56;5015990;28;20097;-79
2022/01/03 06:16:37;;;;;;;110.72;51.75;;;;;;;2.70;74.75;95311.75;5014053;28;20077;-79
2022/01/03 06:19:02;;;;;;;114.35;50.80;;;;;;;3.03;74.08;95358.47;5013680;28;20045;-79
2022/01/03 06:21:28;;;;;;;80.43;39.53;;;;;;;3.60;73.74;95421.00;5016135;28;20045;-79
2022/01/03 06:23:53;;;;;;;93.13;43.28;;;;;;;3.44;73.57;95414.56;5015583;28;20072;-79
2022/01/03 06:26:19;;;;;;;95.40;44.53;;;;;;;3.08;73.45;95345.50;5015541;28;20100;-79
2022/01/03 06:28:45;;;;;;;115.22;48.28;;;;;;;3.96;73.24;95485.66;5015392;28;20406;-79
2022/01/03 06:31:10;;;;;;;103.22;48.75;;;;;;;3.70;72.59;95450.91;5013995;28;20523;-79
2022/01/03 06:33:37;;;;;;;126.95;56.85;;;;;;;3.40;72.47;95398.50;5013914;28;20050;-79
2022/01/03 06:36:03;;;;;;;129.40;58.97;;;;;;;3.81;72.06;95463.25;5015117;28;20038;-79
2022/01/03 06:38:28;;;;;;;111.93;52.13;;;;;;;3.06;72.64;95360.63;5013826;28;20103;-79
2022/01/03 06:40:54;;;;;;;100.57;48.42;;;;;;;3.57;73.14;95430.13;5013913;28;20038;-80
2022/01/03 06:43:19;;;;;;;97.32;47.42;;;;;;;3.33;73.05;95368.16;5015099;28;20108;-79
2022/01/03 06:45:45;;;;;;;80.57;41.92;;;;;;;3.94;73.25;95475.41;5015054;28;20030;-79
2022/01/03 06:48:11;;;;;;;85.00;40.30;;;;;;;2.28;74.40;95237.56;5013292;28;20115;-79
2022/01/03 06:50:36;;;;;;;80.97;39.10;;;;;;;3.27;74.46;95403.91;5013437;28;20038;-79
2022/01/03 06:53:02;;;;;;;67.90;33.60;;;;;;;3.91;74.00;95477.66;5013685;28;20034;-79
2022/01/03 06:55:28;;;;;;;66.88;31.23;;;;;;;3.79;75.02;95493.38;5014390;28;20030;-79
2022/01/03 06:57:53;;;;;;;66.72;32.05;;;;;;;3.18;75.33;95384.28;5014593;28;20044;-79
2022/01/03 07:00:19;;;;;;;62.20;31.38;;;;;;;3.47;74.96;95404.44;5013483;28;20547;-79
2022/01/03 07:02:44;;;;;;;53.88;29.25;;;;;;;2.90;75.14;95310.69;5013359;28;20041;-79
2022/01/03 07:05:15;;;;;;;68.68;31.27;;;;;;;3.56;74.70;95409.38;5012614;28;20045;-79
2022/01/03 07:07:40;;;;;;;53.80;28.65;;;;;;;3.83;74.64;95434.97;5012282;28;20180;-79
2022/01/03 07:10:09;;;;;;;59.38;29.45;;;;;;;3.65;74.52;95387.84;5028881;28;20192;-78
2022/01/03 07:12:34;;;;;;;58.17;29.08;;;;;;;3.67;75.74;95429.56;5011828;28;20531;-79
2022/01/03 07:20:10;;;;;;;53.75;27.88;;;;;;;3.60;76.61;95369.34;5014480;28;20409;-79
2022/01/03 07:22:40;;;;;;;51.05;28.52;;;;;;;3.66;75.99;95365.03;5012510;28;20120;-79
2022/01/03 07:25:09;;;;;;;55.08;29.08;;;;;;;4.12;76.11;95443.03;5013363;28;20068;-79
2022/01/03 07:27:36;;;;;;;56.08;28.05;;;;;;;3.60;75.45;95316.09;5012783;28;20107;-79
2022/01/03 07:30:03;;;;;;;57.38;28.98;;;;;;;4.16;75.63;95381.97;5012933;28;20056;-79
2022/01/03 07:32:28;;;;;;;49.95;28.02;;;;;;;3.68;76.31;95337.53;5012698;28;20131;-79
2022/01/03 07:34:54;;;;;;;60.08;28.13;;;;;;;4.58;75.71;95444.84;5012398;28;20496;-79
2022/01/03 07:37:19;;;;;;;52.40;26.73;;;;;;;4.26;75.65;95373.53;5028906;28;20041;-79
2022/01/03 07:39:45;;;;;;;52.15;27.83;;;;;;;4.17;75.89;95359.94;5012518;28;20042;-79
2022/01/03 07:42:10;;;;;;;73.65;34.53;;;;;;;4.50;75.74;95427.63;5012261;28;20037;-78
2022/01/03 07:44:36;;;;;;;93.03;45.17;;;;;;;4.49;75.86;95444.41;5013505;28;20536;-79
2022/01/03 07:47:02;;;;;;;100.57;47.33;;;;;;;4.62;75.35;95432.88;5012313;28;20045;-79
2022/01/03 07:49:27;;;;;;;133.70;61.95;;;;;;;4.22;75.10;95388.13;5014573;28;20042;-79
2022/01/03 07:51:56;;;;;;;140.90;66.05;;;;;;;3.59;73.93;95272.53;1341152;28;10022046;-79
2022/01/03 07:54:22;;;;;;;132.68;67.30;;;;;;;4.46;74.13;95431.72;3975387;28;10001446;-79
2022/01/03 07:56:47;;;;;;;134.40;68.32;;;;;;;4.28;73.42;95379.31;5028720;28;20030;-79
2022/01/03 07:59:13;;;;;;;146.57;67.55;;;;;;;4.15;72.66;95351.50;5011879;28;20030;-78
2022/01/03 08:01:40;;;;;;;132.15;65.45;;;;;;;4.37;72.46;95358.78;5011997;28;20419;-80
2022/01/03 08:04:06;;;;;;;116.13;56.42;;;;;;;4.32;72.48;95329.78;5012668;28;20030;-79
2022/01/03 08:06:32;;;;;;;112.45;54.25;;;;;;;5.05;72.46;95441.13;5011947;28;20045;-79
2022/01/03 08:08:58;;;;;;;86.72;42.50;;;;;;;4.24;75.27;95355.38;5013088;28;20124;-79
2022/01/03 08:11:24;;;;;;;76.22;39.83;;;;;;;4.84;75.82;95444.38;5011751;28;20123;-79
2022/01/03 08:13:49;;;;;;;79.65;40.72;;;;;;;4.82;75.28;95428.03;4995721;28;20530;-79
2022/01/03 08:16:15;;;;;;;63.00;32.38;;;;;;;5.04;76.31;95454.50;5011676;28;20044;-79
2022/01/03 08:18:40;;;;;;;52.25;26.90;;;;;;;4.74;77.45;95411.81;5011772;28;20406;-79
2022/01/03 08:21:05;;;;;;;54.22;27.05;;;;;;;4.14;76.73;95300.03;5013120;28;20432;-78
2022/01/03 08:23:32;;;;;;;58.85;31.25;;;;;;;4.30;75.98;95298.50;5013988;28;20519;-79
2022/01/03 08:25:57;;;;;;;65.75;31.90;;;;;;;5.16;75.77;95410.59;5012025;28;20123;-79
2022/01/03 08:28:23;;;;;;;58.35;30.77;;;;;;;5.18;76.02;95398.03;5011766;28;20037;-79
2022/01/03 08:30:48;;;;;;;63.10;33.00;;;;;;;4.93;76.42;95393.06;5013358;28;20120;-79
2022/01/03 08:33:13;;;;;;;93.05;45.72;;;;;;;5.61;75.45;95433.53;5013214;28;20068;-79
2022/01/03 08:35:39;;;;;;;91.88;45.85;;;;;;;5.42;74.83;95396.88;5011014;28;20033;-79
2022/01/03 08:38:04;;;;;;;112.38;53.67;;;;;;;5.02;74.30;95330.41;5012043;28;20042;-78
2022/01/03 08:40:31;;;;;;;108.57;54.85;;;;;;;4.89;74.65;95297.31;5013898;28;20587;-79
2022/01/03 08:42:57;;;;;;;138.30;70.93;;;;;;;5.05;74.54;95337.81;5011687;28;20030;-79
2022/01/03 08:45:23;;;;;;;131.73;67.93;;;;;;;5.46;73.03;95333.28;5011535;28;20103;-79
2022/01/03 08:47:48;;;;;;;94.72;43.95;;;;;;;5.64;72.97;95360.19;5011667;28;20152;-79
2022/01/03 08:50:17;;;;;;;82.47;42.53;;;;;;;5.62;73.51;95346.47;4995524;28;20034;-79
2022/01/03 08:52:43;;;;;;;54.65;30.52;;;;;;;5.77;73.21;95336.19;5012458;28;20045;-79
2022/01/03 08:55:09;;;;;;;46.85;25.55;;;;;;;6.37;72.29;95401.38;5011606;28;20034;-79
2022/01/03 08:57:34;;;;;;;51.72;28.95;;;;;;;5.83;72.07;95292.31;5011519;28;20124;-78
2022/01/03 09:00:00;;;;;;;52.28;28.40;;;;;;;6.54;72.14;95375.81;5013025;28;20041;-79
2022/01/03 09:02:25;;;;;;;48.38;23.55;;;;;;;6.08;71.83;95284.81;5012205;28;20030;-79
2022/01/03 09:04:50;;;;;;;59.13;28.42;;;;;;;6.06;71.82;95281.63;5012168;28;20042;-79
2022/01/03 09:07:16;;;;;;;56.10;26.48;;;;;;;6.54;72.03;95330.22;5013157;28;20048;-79
2022/01/03 09:09:41;;;;;;;55.38;26.70;;;;;;;6.40;71.09;95319.25;5013150;28;20046;-79
2022/01/03 09:12:08;;;;;;;60.33;29.40;;;;;;;6.42;71.67;95313.69;5012012;28;20121;-79
2022/01/03 09:14:34;;;;;;;69.90;35.83;;;;;;;6.86;70.21;95394.41;5011609;28;20034;-79
2022/01/03 09:17:00;;;;;;;119.25;58.95;;;;;;;6.01;70.21;95276.31;5011788;28;20092;-79
2022/01/03 09:19:26;;;;;;;118.35;57.95;;;;;;;6.81;70.20;95356.63;5011712;28;20080;-79
2022/01/03 09:22:00;;;;;;;121.53;57.88;;;;;;;7.13;70.17;95378.63;5027999;28;20050;-79
2022/01/03 09:24:41;;;;;;;112.88;55.22;;;;;;;6.82;69.68;95319.47;5011854;28;20152;-79
2022/01/03 09:29:54;;;;;;;106.15;52.08;;;;;;;6.78;68.16;95283.34;5014108;28;20111;-79
2022/01/03 09:32:19;;;;;;;90.15;44.35;;;;;;;7.24;67.97;95353.97;5012077;28;20042;-78
2022/01/03 09:34:45;;;;;;;87.28;44.25;;;;;;;7.29;67.00;95335.56;5013503;28;20053;-79
2022/01/03 09:37:12;;;;;;;80.60;44.05;;;;;;;7.03;67.33;95256.41;5013491;28;20036;-80
2022/01/03 09:39:38;;;;;;;76.20;38.40;;;;;;;7.81;66.90;95348.16;5013729;28;20033;-79
2022/01/03 09:42:11;;;;;;;70.28;36.35;;;;;;;7.84;66.85;95318.63;5028051;28;20129;-79
2022/01/03 09:44:36;;;;;;;83.38;39.47;;;;;;;7.28;67.09;95260.09;5028400;28;20038;-79
2022/01/03 09:47:05;;;;;;;77.55;38.92;;;;;;;7.17;66.16;95224.13;5014544;28;20033;-79
2022/01/03 09:49:35;;;;;;;73.30;39.80;;;;;;;8.00;66.24;95304.50;5010222;28;20060;-79
2022/01/03 09:52:16;;;;;;;71.00;38.00;;;;;;;8.17;65.65;95306.97;1068219;28;10022931;-79
2022/01/03 09:54:44;;;;;;;82.28;40.30;;;;;;;8.47;65.41;95328.31;4671137;28;10001613;-79
2022/01/03 09:57:12;;;;;;;81.47;39.72;;;;;;;8.03;64.08;95248.50;5017245;28;20580;-78
2022/01/03 09:59:38;;;;;;;72.68;38.95;;;;;;;8.40;65.22;95303.16;5017650;28;20045;-80
2022/01/03 10:02:05;;;;;;;83.00;42.92;;;;;;;8.01;64.75;95224.19;5017200;28;20030;-79
2022/01/03 10:04:32;;;;;;;81.70;42.38;;;;;;;8.28;64.52;95271.63;5017389;28;20030;-79
2022/01/03 10:06:58;;;;;;;80.20;41.28;;;;;;;8.47;63.65;95267.53;5034880;28;20512;-79
2022/01/03 10:09:24;;;;;;;81.90;39.30;;;;;;;8.08;64.72;95208.13;5018155;28;20531;-80
2022/01/03 10:11:50;;;;;;;81.53;39.45;;;;;;;9.00;63.96;95288.63;5014554;28;20120;-79
2022/01/03 10:14:16;;;;;;;82.97;44.40;;;;;;;8.49;64.15;95212.56;5017113;28;20060;-79
2022/01/03 10:16:44;;;;;;;89.25;49.47;;;;;;;8.68;65.11;95223.47;5016391;28;20083;-79
2022/01/03 10:19:10;;;;;;;91.35;52.03;;;;;;;9.34;64.56;95278.38;5016453;28;20395;-79
2022/01/03 10:21:42;;;;;;;94.93;50.03;;;;;;;9.53;63.38;95274.16;5015540;28;20088;-79
2022/01/03 10:24:09;;;;;;;98.90;49.42;;;;;;;9.64;63.25;95276.53;5016077;28;20528;-79
2022/01/03 10:26:37;;;;;;;89.57;50.47;;;;;;;9.96;62.39;95265.66;5017824;28;20080;-79
2022/01/03 10:29:16;;;;;;;95.55;48.92;;;;;;;10.26;61.13;95272.00;5032094;28;20033;-79
2022/01/03 10:31:44;;;;;;;88.05;48.88;;;;;;;10.43;60.13;95268.00;5015485;28;20037;-79
2022/01/03 10:34:13;;;;;;;90.75;48.67;;;;;;;10.63;59.87;95255.72;5014631;28;20432;-79
2022/01/03 10:36:40;;;;;;;83.07;46.50;;;;;;;10.05;58.44;95125.50;5015998;28;20041;-79
2022/01/03 10:39:23;;;;;;;80.72;46.70;;;;;;;11.25;58.04;95239.19;5015163;28;20038;-79
2022/01/03 10:41:54;;;;;;;80.97;44.45;;;;;;;11.08;57.53;95212.22;5014535;28;20513;-79
2022/01/03 10:44:37;;;;;;;75.67;42.57;;;;;;;10.71;56.61;95123.31;5016651;28;20507;-80
2022/01/03 10:47:05;;;;;;;87.65;41.13;;;;;;;11.39;56.31;95218.13;5014881;28;20037;-79
2022/01/03 10:49:32;;;;;;;75.07;40.60;;;;;;;10.75;56.86;95128.88;5016686;28;20093;-79
2022/01/03 10:52:33;;;;;;;64.85;37.75;;;;;;;11.30;56.40;95161.38;5014623;28;20046;-79
2022/01/03 10:55:35;;;;;;;63.15;34.92;;;;;;;11.54;56.52;95212.69;4979539;28;20042;-79
2022/01/03 10:58:04;;;;;;;59.95;35.30;;;;;;;11.69;56.42;95203.81;5014183;28;20393;-79
2022/01/03 11:00:35;;;;;;;67.95;34.58;;;;;;;11.87;56.01;95189.88;5031022;28;20041;-79
2022/01/03 11:05:50;;;;;;;53.25;30.30;;;;;;;11.09;55.58;95060.69;5015440;28;20038;-80
2022/01/03 11:11:01;;;;;;;62.58;30.23;;;;;;;11.28;55.68;95113.88;5017041;28;20102;-79
2022/01/03 11:13:26;;;;;;;54.85;29.75;;;;;;;11.24;55.80;95118.16;5031038;28;20053;-80
2022/01/03 11:15:56;;;;;;;47.85;26.98;;;;;;;11.53;56.04;95185.34;5014701;28;20112;-79
2022/01/03 11:18:26;;;;;;;56.92;26.45;;;;;;;10.95;56.03;95096.91;5014150;28;20072;-79
2022/01/03 11:21:16;;;;;;;47.42;26.30;;;;;;;11.44;57.30;95176.38;5030735;28;20221;-79
2022/01/03 11:23:48;;;;;;;60.97;28.27;;;;;;;11.26;57.67;95165.66;5015982;28;20408;-79
2022/01/03 11:26:18;;;;;;;;;;;;;;;11.46;57.84;95166.28;5033053;28;20033;-79
2022/01/03 11:28:44;;;;;;;46.33;26.10;;;;;;;11.02;56.66;95049.59;5017567;28;19921;-80
2022/01/03 11:31:14;;;;;;;48.10;26.45;;;;;;;11.82;57.15;95140.22;5015213;28;20034;-79
2022/01/03 11:33:40;;;;;;;50.90;27.75;;;;;;;10.78;57.33;94982.41;5015002;28;20060;-79
2022/01/03 11:36:06;;;;;;;53.47;27.13;;;;;;;11.74;56.47;95118.75;5016656;28;20392;-79
2022/01/03 11:38:36;;;;;;;51.92;26.95;;;;;;;11.90;56.23;95109.59;5014381;28;20531;-79
2022/01/03 11:41:05;;;;;;;47.10;26.98;;;;;;;11.82;55.38;95079.13;5015763;28;20128;-80